Huvudsida
METAR-TAF:

METAR-TAF

Flygplatser :

Elista, Ryssland

latitud: 46-22N, longitud: 044-20E, höjd: 150 m

Aktuellt väderrapport

Denna rapport gjordes för 17 minuter sedan, klockan 14:30 UTC
Vind 10 kt från nordost
Temperatur 32°C
Fuktighet 21%
Tryck 1015 hPa
Sikt 10 km eller mer
Inga moln under 1 500 m eller inga cumulonimbus

METAR: URWI 261430Z 05005MPS CAVOK 32/07 Q1015 R09/010065 NOSIG

Tid: 17:47 (14:47 UTC)

Väderprognos

Denna rapport gjordes för 47 minuter sedan, klockan 14:00 UTC
Prognos gäller från 26 kl. 15 UTC till 26 kl. 24 UTC
Vind 12 kt från nordost i byarna ända upp till 23 kt
Sikt 10 km eller mer
Spridda moln på en höjd av 3000 ft, Cumulonimbus.
Temporärt
från 26 kl. 15 UTC till 26 kl. 24 UTC
Sikt: 4000 m
lätta regnskurar
Sannolikhet 40% :
Temporärt
från 26 kl. 15 UTC till 26 kl. 24 UTC
åska, lätt regn

TAF: URWI 261400Z 2615/2624 05006G12MPS 9999 SCT030CB TEMPO 2615/2624 4000 -SHRA PROB40 TEMPO 2615/2624 -TSRA

Aktuella väderrapporter och prognoser från 4000 flygplatser (METAR- och TAF-rapporter).

De tillgängliga stationerna syns som gula och röda prickar på kartan.

För musen över prickarna för att se namnen på stationerna.

Klicka sedan för att få väderrapporter och prognoser.

För att ändra kartan: Klicka på de gröna knapparna med ett svart kors på för att zooma in; den gröna knappen med ett streck på för att zooma ut; eller på de gröna pilarna för angränsande kartor.


METAR-TAF: